sensor_id;sensor_type;location;lat;lon;timestamp;temperature;humidity
28845;DHT22;15976;47.938;7.758;2023-04-06T00:01:01;6.50;48.00
28845;DHT22;15976;47.938;7.758;2023-04-06T00:03:29;6.50;48.20
28845;DHT22;15976;47.938;7.758;2023-04-06T00:05:56;6.50;48.40
28845;DHT22;15976;47.938;7.758;2023-04-06T00:08:23;6.50;48.70
28845;DHT22;15976;47.938;7.758;2023-04-06T00:10:50;6.40;48.70
28845;DHT22;15976;47.938;7.758;2023-04-06T00:13:17;6.40;48.90
28845;DHT22;15976;47.938;7.758;2023-04-06T00:15:44;6.30;49.00
28845;DHT22;15976;47.938;7.758;2023-04-06T00:18:11;6.20;49.10
28845;DHT22;15976;47.938;7.758;2023-04-06T00:20:39;6.20;49.30
28845;DHT22;15976;47.938;7.758;2023-04-06T00:23:06;6.10;49.60
28845;DHT22;15976;47.938;7.758;2023-04-06T00:25:33;6.00;49.70
28845;DHT22;15976;47.938;7.758;2023-04-06T00:27:59;6.00;50.10
28845;DHT22;15976;47.938;7.758;2023-04-06T00:30:27;5.90;50.20
28845;DHT22;15976;47.938;7.758;2023-04-06T00:32:56;5.90;50.50
28845;DHT22;15976;47.938;7.758;2023-04-06T00:35:23;5.90;50.60
28845;DHT22;15976;47.938;7.758;2023-04-06T00:37:51;5.80;50.70
28845;DHT22;15976;47.938;7.758;2023-04-06T00:40:18;5.80;50.90
28845;DHT22;15976;47.938;7.758;2023-04-06T00:42:45;5.80;51.00
28845;DHT22;15976;47.938;7.758;2023-04-06T00:45:12;5.70;51.10
28845;DHT22;15976;47.938;7.758;2023-04-06T00:47:39;5.70;51.20
28845;DHT22;15976;47.938;7.758;2023-04-06T00:50:07;5.70;51.20
28845;DHT22;15976;47.938;7.758;2023-04-06T00:52:34;5.70;51.30
28845;DHT22;15976;47.938;7.758;2023-04-06T00:55:04;5.70;51.40
28845;DHT22;15976;47.938;7.758;2023-04-06T00:57:35;5.60;51.40
28845;DHT22;15976;47.938;7.758;2023-04-06T01:00:03;5.60;51.50
28845;DHT22;15976;47.938;7.758;2023-04-06T01:02:30;5.50;51.70
28845;DHT22;15976;47.938;7.758;2023-04-06T01:04:58;5.50;51.70
28845;DHT22;15976;47.938;7.758;2023-04-06T01:07:36;5.40;51.70
28845;DHT22;15976;47.938;7.758;2023-04-06T01:10:28;5.40;51.90
28845;DHT22;15976;47.938;7.758;2023-04-06T01:13:11;5.40;51.90
28845;DHT22;15976;47.938;7.758;2023-04-06T01:15:54;5.40;51.70
28845;DHT22;15976;47.938;7.758;2023-04-06T01:18:41;5.30;51.80
28845;DHT22;15976;47.938;7.758;2023-04-06T01:21:16;5.30;51.90
28845;DHT22;15976;47.938;7.758;2023-04-06T01:24:15;5.20;51.90
28845;DHT22;15976;47.938;7.758;2023-04-06T01:27:00;5.30;51.70
28845;DHT22;15976;47.938;7.758;2023-04-06T01:29:37;5.20;51.60
28845;DHT22;15976;47.938;7.758;2023-04-06T01:32:07;5.20;51.80
28845;DHT22;15976;47.938;7.758;2023-04-06T01:34:44;5.20;51.90
28845;DHT22;15976;47.938;7.758;2023-04-06T01:37:11;5.20;52.10
28845;DHT22;15976;47.938;7.758;2023-04-06T01:39:38;5.20;52.10
28845;DHT22;15976;47.938;7.758;2023-04-06T01:42:07;5.10;52.10
28845;DHT22;15976;47.938;7.758;2023-04-06T01:44:36;5.10;52.20
28845;DHT22;15976;47.938;7.758;2023-04-06T01:47:09;5.00;52.40
28845;DHT22;15976;47.938;7.758;2023-04-06T01:49:36;5.00;52.30
28845;DHT22;15976;47.938;7.758;2023-04-06T01:52:04;5.00;52.30
28845;DHT22;15976;47.938;7.758;2023-04-06T01:54:31;4.90;52.40
28845;DHT22;15976;47.938;7.758;2023-04-06T01:56:58;5.00;52.60
28845;DHT22;15976;47.938;7.758;2023-04-06T01:59:46;4.90;52.60
28845;DHT22;15976;47.938;7.758;2023-04-06T02:02:39;4.90;52.40
28845;DHT22;15976;47.938;7.758;2023-04-06T02:05:12;4.90;52.10
28845;DHT22;15976;47.938;7.758;2023-04-06T02:07:40;4.90;52.10
28845;DHT22;15976;47.938;7.758;2023-04-06T02:10:12;4.80;52.10
28845;DHT22;15976;47.938;7.758;2023-04-06T02:12:40;4.80;52.10
28845;DHT22;15976;47.938;7.758;2023-04-06T02:15:10;4.80;52.00
28845;DHT22;15976;47.938;7.758;2023-04-06T02:17:40;4.80;52.10
28845;DHT22;15976;47.938;7.758;2023-04-06T02:20:08;4.80;52.20
28845;DHT22;15976;47.938;7.758;2023-04-06T02:22:35;4.80;51.90
28845;DHT22;15976;47.938;7.758;2023-04-06T02:25:02;4.70;51.60
28845;DHT22;15976;47.938;7.758;2023-04-06T02:27:29;4.70;52.00
28845;DHT22;15976;47.938;7.758;2023-04-06T02:29:57;4.70;52.20
28845;DHT22;15976;47.938;7.758;2023-04-06T02:32:24;4.70;52.40
28845;DHT22;15976;47.938;7.758;2023-04-06T02:34:52;4.70;52.60
28845;DHT22;15976;47.938;7.758;2023-04-06T02:37:20;4.60;52.80
28845;DHT22;15976;47.938;7.758;2023-04-06T02:39:48;4.60;52.90
28845;DHT22;15976;47.938;7.758;2023-04-06T02:42:15;4.60;53.10
28845;DHT22;15976;47.938;7.758;2023-04-06T02:44:44;4.60;53.00
28845;DHT22;15976;47.938;7.758;2023-04-06T02:47:11;4.60;52.80
28845;DHT22;15976;47.938;7.758;2023-04-06T02:49:41;4.50;52.60
28845;DHT22;15976;47.938;7.758;2023-04-06T02:52:08;4.50;53.10
28845;DHT22;15976;47.938;7.758;2023-04-06T02:54:36;4.50;52.50
28845;DHT22;15976;47.938;7.758;2023-04-06T02:57:03;4.50;52.70
28845;DHT22;15976;47.938;7.758;2023-04-06T02:59:40;4.50;52.60
28845;DHT22;15976;47.938;7.758;2023-04-06T03:02:19;4.50;52.60
28845;DHT22;15976;47.938;7.758;2023-04-06T03:04:47;4.50;52.60
28845;DHT22;15976;47.938;7.758;2023-04-06T03:07:26;4.50;52.80
28845;DHT22;15976;47.938;7.758;2023-04-06T03:09:53;4.50;52.80
28845;DHT22;15976;47.938;7.758;2023-04-06T03:12:20;4.50;52.90
28845;DHT22;15976;47.938;7.758;2023-04-06T03:15:13;4.50;52.90
28845;DHT22;15976;47.938;7.758;2023-04-06T03:17:44;4.40;52.90
28845;DHT22;15976;47.938;7.758;2023-04-06T03:20:26;4.40;52.90
28845;DHT22;15976;47.938;7.758;2023-04-06T03:22:53;4.40;53.10
28845;DHT22;15976;47.938;7.758;2023-04-06T03:25:24;4.40;53.30
28845;DHT22;15976;47.938;7.758;2023-04-06T03:27:56;4.30;53.30
28845;DHT22;15976;47.938;7.758;2023-04-06T03:30:23;4.30;53.50
28845;DHT22;15976;47.938;7.758;2023-04-06T03:32:50;4.30;53.60
28845;DHT22;15976;47.938;7.758;2023-04-06T03:35:18;4.30;53.60
28845;DHT22;15976;47.938;7.758;2023-04-06T03:37:45;4.30;53.60
28845;DHT22;15976;47.938;7.758;2023-04-06T03:40:12;4.30;53.50
28845;DHT22;15976;47.938;7.758;2023-04-06T03:42:39;4.30;53.20
28845;DHT22;15976;47.938;7.758;2023-04-06T03:45:11;4.30;53.10
28845;DHT22;15976;47.938;7.758;2023-04-06T03:47:46;4.20;53.00
28845;DHT22;15976;47.938;7.758;2023-04-06T03:50:13;4.20;53.30
28845;DHT22;15976;47.938;7.758;2023-04-06T03:52:40;4.20;53.40
28845;DHT22;15976;47.938;7.758;2023-04-06T03:55:08;4.20;53.50
28845;DHT22;15976;47.938;7.758;2023-04-06T03:57:35;4.10;53.60
28845;DHT22;15976;47.938;7.758;2023-04-06T04:00:04;4.10;53.80
28845;DHT22;15976;47.938;7.758;2023-04-06T04:02:38;4.10;53.90
28845;DHT22;15976;47.938;7.758;2023-04-06T04:05:06;4.00;54.10
28845;DHT22;15976;47.938;7.758;2023-04-06T04:07:33;4.00;54.20
28845;DHT22;15976;47.938;7.758;2023-04-06T04:10:00;4.00;54.20
28845;DHT22;15976;47.938;7.758;2023-04-06T04:12:28;4.00;54.20
28845;DHT22;15976;47.938;7.758;2023-04-06T04:14:57;4.00;54.40
28845;DHT22;15976;47.938;7.758;2023-04-06T04:17:24;4.00;54.40
28845;DHT22;15976;47.938;7.758;2023-04-06T04:19:51;4.00;54.40
28845;DHT22;15976;47.938;7.758;2023-04-06T04:22:18;4.00;54.50
28845;DHT22;15976;47.938;7.758;2023-04-06T04:24:46;4.00;54.50
28845;DHT22;15976;47.938;7.758;2023-04-06T04:27:13;3.90;54.50
28845;DHT22;15976;47.938;7.758;2023-04-06T04:29:41;3.90;54.80
28845;DHT22;15976;47.938;7.758;2023-04-06T04:32:12;3.90;54.90
28845;DHT22;15976;47.938;7.758;2023-04-06T04:34:39;3.80;54.90
28845;DHT22;15976;47.938;7.758;2023-04-06T04:37:11;3.80;55.10
28845;DHT22;15976;47.938;7.758;2023-04-06T04:39:50;3.80;55.10
28845;DHT22;15976;47.938;7.758;2023-04-06T04:42:17;3.80;55.10
28845;DHT22;15976;47.938;7.758;2023-04-06T04:44:49;3.80;55.20
28845;DHT22;15976;47.938;7.758;2023-04-06T04:47:27;3.70;55.30
28845;DHT22;15976;47.938;7.758;2023-04-06T04:49:54;3.70;55.30
28845;DHT22;15976;47.938;7.758;2023-04-06T04:52:23;3.70;55.40
28845;DHT22;15976;47.938;7.758;2023-04-06T04:55:06;3.70;55.40
28845;DHT22;15976;47.938;7.758;2023-04-06T04:57:33;3.70;55.50
28845;DHT22;15976;47.938;7.758;2023-04-06T05:00:03;3.60;55.50
28845;DHT22;15976;47.938;7.758;2023-04-06T05:02:31;3.60;55.60
28845;DHT22;15976;47.938;7.758;2023-04-06T05:05:09;3.60;55.70
28845;DHT22;15976;47.938;7.758;2023-04-06T05:07:38;3.60;55.70
28845;DHT22;15976;47.938;7.758;2023-04-06T05:10:08;3.60;55.90
28845;DHT22;15976;47.938;7.758;2023-04-06T05:15:47;3.60;56.00
28845;DHT22;15976;47.938;7.758;2023-04-06T05:18:28;3.60;56.00
28845;DHT22;15976;47.938;7.758;2023-04-06T05:20:57;3.60;56.00
28845;DHT22;15976;47.938;7.758;2023-04-06T05:23:33;3.70;56.00
28845;DHT22;15976;47.938;7.758;2023-04-06T05:26:02;3.70;56.00
28845;DHT22;15976;47.938;7.758;2023-04-06T05:28:29;3.70;56.10
28845;DHT22;15976;47.938;7.758;2023-04-06T05:30:57;3.70;56.30
28845;DHT22;15976;47.938;7.758;2023-04-06T05:33:26;3.70;56.30
28845;DHT22;15976;47.938;7.758;2023-04-06T05:36:04;3.70;56.20
28845;DHT22;15976;47.938;7.758;2023-04-06T05:38:36;3.70;56.10
28845;DHT22;15976;47.938;7.758;2023-04-06T05:41:14;3.80;56.10
28845;DHT22;15976;47.938;7.758;2023-04-06T05:43:42;3.80;56.00
28845;DHT22;15976;47.938;7.758;2023-04-06T05:46:09;3.80;56.10
28845;DHT22;15976;47.938;7.758;2023-04-06T05:48:37;3.80;56.20
28845;DHT22;15976;47.938;7.758;2023-04-06T05:51:07;3.90;56.10
28845;DHT22;15976;47.938;7.758;2023-04-06T05:53:47;3.90;56.10
28845;DHT22;15976;47.938;7.758;2023-04-06T05:56:14;3.90;56.00
28845;DHT22;15976;47.938;7.758;2023-04-06T05:58:42;4.00;56.10
28845;DHT22;15976;47.938;7.758;2023-04-06T06:01:12;4.00;56.20
28845;DHT22;15976;47.938;7.758;2023-04-06T06:03:45;4.00;56.20
28845;DHT22;15976;47.938;7.758;2023-04-06T06:06:12;4.00;56.30
28845;DHT22;15976;47.938;7.758;2023-04-06T06:08:52;4.00;56.10
28845;DHT22;15976;47.938;7.758;2023-04-06T06:11:19;4.10;56.20
28845;DHT22;15976;47.938;7.758;2023-04-06T06:13:49;4.00;56.20
28845;DHT22;15976;47.938;7.758;2023-04-06T06:16:18;4.00;56.20
28845;DHT22;15976;47.938;7.758;2023-04-06T06:18:48;4.00;56.30
28845;DHT22;15976;47.938;7.758;2023-04-06T06:21:15;4.00;56.40
28845;DHT22;15976;47.938;7.758;2023-04-06T06:23:44;4.10;56.40
28845;DHT22;15976;47.938;7.758;2023-04-06T06:26:15;4.10;56.50
28845;DHT22;15976;47.938;7.758;2023-04-06T06:28:42;4.20;56.40
28845;DHT22;15976;47.938;7.758;2023-04-06T06:31:11;4.20;56.30
28845;DHT22;15976;47.938;7.758;2023-04-06T06:33:39;4.30;56.20
28845;DHT22;15976;47.938;7.758;2023-04-06T06:36:07;4.30;56.10
28845;DHT22;15976;47.938;7.758;2023-04-06T06:38:34;4.40;56.20
28845;DHT22;15976;47.938;7.758;2023-04-06T06:41:01;4.40;56.00
28845;DHT22;15976;47.938;7.758;2023-04-06T06:43:31;4.50;55.90
28845;DHT22;15976;47.938;7.758;2023-04-06T06:46:01;4.50;55.80
28845;DHT22;15976;47.938;7.758;2023-04-06T06:48:28;4.70;55.70
28845;DHT22;15976;47.938;7.758;2023-04-06T06:50:56;4.80;55.50
28845;DHT22;15976;47.938;7.758;2023-04-06T06:53:24;4.80;55.40
28845;DHT22;15976;47.938;7.758;2023-04-06T06:55:51;5.00;55.40
28845;DHT22;15976;47.938;7.758;2023-04-06T06:58:19;5.10;55.30
28845;DHT22;15976;47.938;7.758;2023-04-06T07:00:49;5.30;55.30
28845;DHT22;15976;47.938;7.758;2023-04-06T07:03:16;5.80;54.80
28845;DHT22;15976;47.938;7.758;2023-04-06T07:05:46;6.40;53.50
28845;DHT22;15976;47.938;7.758;2023-04-06T07:08:23;7.10;51.90
28845;DHT22;15976;47.938;7.758;2023-04-06T07:10:51;7.70;50.40
28845;DHT22;15976;47.938;7.758;2023-04-06T07:13:24;8.30;49.50
28845;DHT22;15976;47.938;7.758;2023-04-06T07:15:56;8.80;48.30
28845;DHT22;15976;47.938;7.758;2023-04-06T07:18:28;9.30;47.30
28845;DHT22;15976;47.938;7.758;2023-04-06T07:21:03;9.70;46.20
28845;DHT22;15976;47.938;7.758;2023-04-06T07:23:31;10.20;45.20
28845;DHT22;15976;47.938;7.758;2023-04-06T07:25:58;10.50;44.50
28845;DHT22;15976;47.938;7.758;2023-04-06T07:28:26;10.90;44.00
28845;DHT22;15976;47.938;7.758;2023-04-06T07:30:54;11.30;43.50
28845;DHT22;15976;47.938;7.758;2023-04-06T07:33:21;11.70;42.60
28845;DHT22;15976;47.938;7.758;2023-04-06T07:35:50;12.00;41.70
28845;DHT22;15976;47.938;7.758;2023-04-06T07:38:18;12.30;41.10
28845;DHT22;15976;47.938;7.758;2023-04-06T07:40:45;12.60;40.60
28845;DHT22;15976;47.938;7.758;2023-04-06T07:43:12;12.90;39.90
28845;DHT22;15976;47.938;7.758;2023-04-06T07:45:40;13.20;39.30
28845;DHT22;15976;47.938;7.758;2023-04-06T07:48:08;13.50;38.80
28845;DHT22;15976;47.938;7.758;2023-04-06T07:50:36;13.90;38.20
28845;DHT22;15976;47.938;7.758;2023-04-06T07:53:04;14.30;37.40
28845;DHT22;15976;47.938;7.758;2023-04-06T07:55:31;14.60;36.50
28845;DHT22;15976;47.938;7.758;2023-04-06T07:58:04;14.80;35.90
28845;DHT22;15976;47.938;7.758;2023-04-06T08:00:31;14.90;35.50
28845;DHT22;15976;47.938;7.758;2023-04-06T08:02:58;15.00;35.40
28845;DHT22;15976;47.938;7.758;2023-04-06T08:05:25;15.20;35.00
28845;DHT22;15976;47.938;7.758;2023-04-06T08:07:54;15.60;34.60
28845;DHT22;15976;47.938;7.758;2023-04-06T08:10:22;16.00;34.10
28845;DHT22;15976;47.938;7.758;2023-04-06T08:12:49;16.30;33.80
28845;DHT22;15976;47.938;7.758;2023-04-06T08:23:55;17.70;32.50
28845;DHT22;15976;47.938;7.758;2023-04-06T08:26:22;18.00;31.80
28845;DHT22;15976;47.938;7.758;2023-04-06T08:28:49;18.00;31.10
28845;DHT22;15976;47.938;7.758;2023-04-06T08:31:16;17.90;30.40
28845;DHT22;15976;47.938;7.758;2023-04-06T08:33:43;17.80;30.70
28845;DHT22;15976;47.938;7.758;2023-04-06T08:36:14;17.70;31.30
28845;DHT22;15976;47.938;7.758;2023-04-06T08:38:42;17.70;30.90
28845;DHT22;15976;47.938;7.758;2023-04-06T08:41:13;18.20;30.90
28845;DHT22;15976;47.938;7.758;2023-04-06T08:43:46;18.60;30.30
28845;DHT22;15976;47.938;7.758;2023-04-06T08:46:14;19.10;29.60
28845;DHT22;15976;47.938;7.758;2023-04-06T08:48:42;19.50;28.50
28845;DHT22;15976;47.938;7.758;2023-04-06T08:51:10;19.50;28.00
28845;DHT22;15976;47.938;7.758;2023-04-06T08:53:38;19.60;27.80
28845;DHT22;15976;47.938;7.758;2023-04-06T08:56:05;19.60;27.70
28845;DHT22;15976;47.938;7.758;2023-04-06T08:58:37;19.60;27.40
28845;DHT22;15976;47.938;7.758;2023-04-06T09:01:11;19.50;27.40
28845;DHT22;15976;47.938;7.758;2023-04-06T09:03:39;19.60;27.50
28845;DHT22;15976;47.938;7.758;2023-04-06T09:06:09;19.90;27.30
28845;DHT22;15976;47.938;7.758;2023-04-06T09:08:42;20.20;26.90
28845;DHT22;15976;47.938;7.758;2023-04-06T09:11:11;20.50;26.90
28845;DHT22;15976;47.938;7.758;2023-04-06T09:13:46;21.00;26.70
28845;DHT22;15976;47.938;7.758;2023-04-06T09:16:17;21.50;26.30
28845;DHT22;15976;47.938;7.758;2023-04-06T09:18:45;21.70;26.30
28845;DHT22;15976;47.938;7.758;2023-04-06T09:21:12;22.00;26.00
28845;DHT22;15976;47.938;7.758;2023-04-06T09:23:39;22.20;26.00
28845;DHT22;15976;47.938;7.758;2023-04-06T09:28:55;22.40;25.20
28845;DHT22;15976;47.938;7.758;2023-04-06T09:33:50;22.50;25.00
28845;DHT22;15976;47.938;7.758;2023-04-06T09:36:28;22.70;24.30
28845;DHT22;15976;47.938;7.758;2023-04-06T09:39:01;22.80;24.10
28845;DHT22;15976;47.938;7.758;2023-04-06T09:41:30;22.60;23.60
28845;DHT22;15976;47.938;7.758;2023-04-06T09:44:03;22.20;23.50
28845;DHT22;15976;47.938;7.758;2023-04-06T09:47:05;21.70;24.20
28845;DHT22;15976;47.938;7.758;2023-04-06T09:50:15;21.80;24.70
28845;DHT22;15976;47.938;7.758;2023-04-06T09:52:48;22.20;24.50
28845;DHT22;15976;47.938;7.758;2023-04-06T09:55:40;22.60;24.10
28845;DHT22;15976;47.938;7.758;2023-04-06T09:58:16;23.10;23.70
28845;DHT22;15976;47.938;7.758;2023-04-06T10:01:10;23.30;23.40
28845;DHT22;15976;47.938;7.758;2023-04-06T10:03:47;23.20;23.30
28845;DHT22;15976;47.938;7.758;2023-04-06T10:06:21;23.50;23.50
28845;DHT22;15976;47.938;7.758;2023-04-06T10:08:51;24.00;23.30
28845;DHT22;15976;47.938;7.758;2023-04-06T10:11:21;24.20;22.90
28845;DHT22;15976;47.938;7.758;2023-04-06T10:13:48;24.20;22.70
28845;DHT22;15976;47.938;7.758;2023-04-06T10:16:17;24.50;22.80
28845;DHT22;15976;47.938;7.758;2023-04-06T10:18:46;24.90;22.40
28845;DHT22;15976;47.938;7.758;2023-04-06T10:21:21;25.10;22.00
28845;DHT22;15976;47.938;7.758;2023-04-06T10:23:51;25.30;21.60
28845;DHT22;15976;47.938;7.758;2023-04-06T10:26:21;25.40;21.00
28845;DHT22;15976;47.938;7.758;2023-04-06T10:28:49;25.20;20.00
28845;DHT22;15976;47.938;7.758;2023-04-06T10:31:27;24.70;20.50
28845;DHT22;15976;47.938;7.758;2023-04-06T10:33:56;24.60;20.60
28845;DHT22;15976;47.938;7.758;2023-04-06T10:36:28;24.70;20.90
28845;DHT22;15976;47.938;7.758;2023-04-06T10:39:07;24.50;20.20
28845;DHT22;15976;47.938;7.758;2023-04-06T10:41:36;24.00;20.50
28845;DHT22;15976;47.938;7.758;2023-04-06T10:44:07;23.90;20.90
28845;DHT22;15976;47.938;7.758;2023-04-06T10:46:34;23.90;21.10
28845;DHT22;15976;47.938;7.758;2023-04-06T10:49:11;24.50;21.20
28845;DHT22;15976;47.938;7.758;2023-04-06T10:51:41;25.20;20.40
28845;DHT22;15976;47.938;7.758;2023-04-06T10:54:12;25.40;20.20
28845;DHT22;15976;47.938;7.758;2023-04-06T10:56:45;25.70;20.20
28845;DHT22;15976;47.938;7.758;2023-04-06T10:59:18;25.90;20.00
28845;DHT22;15976;47.938;7.758;2023-04-06T11:01:59;25.90;19.50
28845;DHT22;15976;47.938;7.758;2023-04-06T11:04:36;26.20;19.70
28845;DHT22;15976;47.938;7.758;2023-04-06T11:07:27;26.50;18.90
28845;DHT22;15976;47.938;7.758;2023-04-06T11:10:26;26.40;18.90
28845;DHT22;15976;47.938;7.758;2023-04-06T11:12:54;26.30;18.80
28845;DHT22;15976;47.938;7.758;2023-04-06T11:15:22;25.90;18.60
28845;DHT22;15976;47.938;7.758;2023-04-06T11:17:49;25.40;18.80
28845;DHT22;15976;47.938;7.758;2023-04-06T11:20:16;25.10;18.80
28845;DHT22;15976;47.938;7.758;2023-04-06T11:22:51;24.90;19.00
28845;DHT22;15976;47.938;7.758;2023-04-06T11:25:19;24.80;19.10
28845;DHT22;15976;47.938;7.758;2023-04-06T11:27:47;24.70;18.80
28845;DHT22;15976;47.938;7.758;2023-04-06T11:30:15;24.80;18.90
28845;DHT22;15976;47.938;7.758;2023-04-06T11:32:43;25.00;18.50
28845;DHT22;15976;47.938;7.758;2023-04-06T11:35:21;25.40;18.60
28845;DHT22;15976;47.938;7.758;2023-04-06T11:37:50;25.90;18.50
28845;DHT22;15976;47.938;7.758;2023-04-06T11:40:21;26.50;18.30
28845;DHT22;15976;47.938;7.758;2023-04-06T11:42:53;27.00;17.90
28845;DHT22;15976;47.938;7.758;2023-04-06T11:45:20;27.40;17.60
28845;DHT22;15976;47.938;7.758;2023-04-06T11:47:59;27.90;17.40
28845;DHT22;15976;47.938;7.758;2023-04-06T11:50:32;28.40;17.30
28845;DHT22;15976;47.938;7.758;2023-04-06T11:53:02;28.30;17.10
28845;DHT22;15976;47.938;7.758;2023-04-06T11:55:37;28.00;17.20
28845;DHT22;15976;47.938;7.758;2023-04-06T11:58:05;27.80;17.30
28845;DHT22;15976;47.938;7.758;2023-04-06T12:00:32;27.40;17.50
28845;DHT22;15976;47.938;7.758;2023-04-06T12:03:01;26.90;17.90
28845;DHT22;15976;47.938;7.758;2023-04-06T12:05:28;26.60;18.00
28845;DHT22;15976;47.938;7.758;2023-04-06T12:07:55;26.30;18.10
28845;DHT22;15976;47.938;7.758;2023-04-06T12:10:26;26.00;18.30
28845;DHT22;15976;47.938;7.758;2023-04-06T12:12:53;26.00;18.40
28845;DHT22;15976;47.938;7.758;2023-04-06T12:15:20;25.70;18.50
28845;DHT22;15976;47.938;7.758;2023-04-06T12:17:48;25.20;18.80
28845;DHT22;15976;47.938;7.758;2023-04-06T12:20:16;24.90;18.90
28845;DHT22;15976;47.938;7.758;2023-04-06T12:22:52;24.60;19.20
28845;DHT22;15976;47.938;7.758;2023-04-06T12:25:19;24.70;19.40
28845;DHT22;15976;47.938;7.758;2023-04-06T12:27:46;24.80;19.10
28845;DHT22;15976;47.938;7.758;2023-04-06T12:30:14;24.50;19.30
28845;DHT22;15976;47.938;7.758;2023-04-06T12:32:41;24.10;19.60
28845;DHT22;15976;47.938;7.758;2023-04-06T12:35:09;23.90;19.70
28845;DHT22;15976;47.938;7.758;2023-04-06T12:37:36;23.80;19.80
28845;DHT22;15976;47.938;7.758;2023-04-06T12:40:03;23.70;19.90
28845;DHT22;15976;47.938;7.758;2023-04-06T12:42:31;23.60;20.10
28845;DHT22;15976;47.938;7.758;2023-04-06T12:44:58;23.40;20.10
28845;DHT22;15976;47.938;7.758;2023-04-06T12:47:25;23.20;20.20
28845;DHT22;15976;47.938;7.758;2023-04-06T12:49:53;23.10;20.30
28845;DHT22;15976;47.938;7.758;2023-04-06T12:52:21;23.00;20.50
28845;DHT22;15976;47.938;7.758;2023-04-06T12:54:48;22.90;20.90
28845;DHT22;15976;47.938;7.758;2023-04-06T12:57:17;23.00;21.00
28845;DHT22;15976;47.938;7.758;2023-04-06T12:59:44;23.00;21.00
28845;DHT22;15976;47.938;7.758;2023-04-06T13:02:11;23.20;20.70
28845;DHT22;15976;47.938;7.758;2023-04-06T13:04:39;23.30;20.40
28845;DHT22;15976;47.938;7.758;2023-04-06T13:07:06;23.10;20.30
28845;DHT22;15976;47.938;7.758;2023-04-06T13:09:33;23.10;20.50
28845;DHT22;15976;47.938;7.758;2023-04-06T13:12:00;23.20;20.50
28845;DHT22;15976;47.938;7.758;2023-04-06T13:14:27;23.10;20.40
28845;DHT22;15976;47.938;7.758;2023-04-06T13:16:54;23.20;20.60
28845;DHT22;15976;47.938;7.758;2023-04-06T13:19:22;23.30;20.60
28845;DHT22;15976;47.938;7.758;2023-04-06T13:21:49;23.30;20.80
28845;DHT22;15976;47.938;7.758;2023-04-06T13:24:16;23.20;20.90
28845;DHT22;15976;47.938;7.758;2023-04-06T13:26:43;23.10;20.90
28845;DHT22;15976;47.938;7.758;2023-04-06T13:29:10;23.10;20.80
28845;DHT22;15976;47.938;7.758;2023-04-06T13:31:37;22.90;20.80
28845;DHT22;15976;47.938;7.758;2023-04-06T13:34:05;22.70;20.90
28845;DHT22;15976;47.938;7.758;2023-04-06T13:36:32;22.70;21.00
28845;DHT22;15976;47.938;7.758;2023-04-06T13:39:00;22.70;21.20
28845;DHT22;15976;47.938;7.758;2023-04-06T13:41:27;22.70;21.00
28845;DHT22;15976;47.938;7.758;2023-04-06T13:43:54;22.50;21.10
28845;DHT22;15976;47.938;7.758;2023-04-06T13:46:21;22.30;21.10
28845;DHT22;15976;47.938;7.758;2023-04-06T13:48:50;22.20;21.30
28845;DHT22;15976;47.938;7.758;2023-04-06T13:51:18;22.20;21.10
28845;DHT22;15976;47.938;7.758;2023-04-06T13:53:44;22.00;21.20
28845;DHT22;15976;47.938;7.758;2023-04-06T13:56:13;21.70;21.20
28845;DHT22;15976;47.938;7.758;2023-04-06T13:58:40;21.50;21.50
28845;DHT22;15976;47.938;7.758;2023-04-06T14:01:08;21.40;21.70
28845;DHT22;15976;47.938;7.758;2023-04-06T14:03:37;21.40;22.20
28845;DHT22;15976;47.938;7.758;2023-04-06T14:06:13;21.40;22.10
28845;DHT22;15976;47.938;7.758;2023-04-06T14:08:56;21.30;22.30
28845;DHT22;15976;47.938;7.758;2023-04-06T14:11:24;20.80;22.40
28845;DHT22;15976;47.938;7.758;2023-04-06T14:13:51;20.60;22.80
28845;DHT22;15976;47.938;7.758;2023-04-06T14:16:18;20.50;22.80
28845;DHT22;15976;47.938;7.758;2023-04-06T14:18:46;20.20;23.00
28845;DHT22;15976;47.938;7.758;2023-04-06T14:21:13;20.00;23.60
28845;DHT22;15976;47.938;7.758;2023-04-06T14:23:41;19.70;23.60
28845;DHT22;15976;47.938;7.758;2023-04-06T14:26:09;19.50;23.80
28845;DHT22;15976;47.938;7.758;2023-04-06T14:28:37;19.40;24.00
28845;DHT22;15976;47.938;7.758;2023-04-06T14:31:10;19.30;24.10
28845;DHT22;15976;47.938;7.758;2023-04-06T14:33:42;19.20;24.20
28845;DHT22;15976;47.938;7.758;2023-04-06T14:36:10;19.30;24.20
28845;DHT22;15976;47.938;7.758;2023-04-06T14:38:37;19.30;24.20
28845;DHT22;15976;47.938;7.758;2023-04-06T14:41:06;19.30;24.10
28845;DHT22;15976;47.938;7.758;2023-04-06T14:43:34;19.30;24.30
28845;DHT22;15976;47.938;7.758;2023-04-06T14:46:02;19.30;24.40
28845;DHT22;15976;47.938;7.758;2023-04-06T14:48:29;19.30;24.60
28845;DHT22;15976;47.938;7.758;2023-04-06T14:50:56;19.30;24.60
28845;DHT22;15976;47.938;7.758;2023-04-06T14:53:24;19.20;24.80
28845;DHT22;15976;47.938;7.758;2023-04-06T14:55:52;19.30;24.80
28845;DHT22;15976;47.938;7.758;2023-04-06T14:58:20;19.30;24.70
28845;DHT22;15976;47.938;7.758;2023-04-06T15:00:47;19.10;24.70
28845;DHT22;15976;47.938;7.758;2023-04-06T15:03:14;19.10;24.90
28845;DHT22;15976;47.938;7.758;2023-04-06T15:05:42;19.00;25.00
28845;DHT22;15976;47.938;7.758;2023-04-06T15:08:15;18.80;25.20
28845;DHT22;15976;47.938;7.758;2023-04-06T15:11:04;18.60;25.50
28845;DHT22;15976;47.938;7.758;2023-04-06T15:13:36;18.50;25.80
28845;DHT22;15976;47.938;7.758;2023-04-06T15:16:31;18.40;25.90
28845;DHT22;15976;47.938;7.758;2023-04-06T15:19:07;18.30;26.10
28845;DHT22;15976;47.938;7.758;2023-04-06T15:21:38;18.20;26.10
28845;DHT22;15976;47.938;7.758;2023-04-06T15:28:14;18.00;27.50
28845;DHT22;15976;47.938;7.758;2023-04-06T15:30:46;17.90;27.50
28845;DHT22;15976;47.938;7.758;2023-04-06T15:33:34;17.80;27.80
28845;DHT22;15976;47.938;7.758;2023-04-06T15:40:24;17.50;28.30
28845;DHT22;15976;47.938;7.758;2023-04-06T15:43:31;17.30;28.20
28845;DHT22;15976;47.938;7.758;2023-04-06T15:46:46;17.20;28.50
28845;DHT22;15976;47.938;7.758;2023-04-06T15:53:20;16.70;29.00
28845;DHT22;15976;47.938;7.758;2023-04-06T15:56:22;16.50;29.40
28845;DHT22;15976;47.938;7.758;2023-04-06T15:59:15;16.30;29.80
28845;DHT22;15976;47.938;7.758;2023-04-06T16:02:05;16.00;30.10
28845;DHT22;15976;47.938;7.758;2023-04-06T16:05:20;15.80;30.80
28845;DHT22;15976;47.938;7.758;2023-04-06T16:09:03;15.80;31.10
28845;DHT22;15976;47.938;7.758;2023-04-06T16:11:43;15.70;31.40
28845;DHT22;15976;47.938;7.758;2023-04-06T16:14:29;15.70;31.90
28845;DHT22;15976;47.938;7.758;2023-04-06T16:17:15;15.60;32.00
28845;DHT22;15976;47.938;7.758;2023-04-06T16:20:05;15.50;32.30
28845;DHT22;15976;47.938;7.758;2023-04-06T16:22:49;15.30;32.80
28845;DHT22;15976;47.938;7.758;2023-04-06T16:25:34;15.20;32.70
28845;DHT22;15976;47.938;7.758;2023-04-06T16:28:01;15.10;32.40
28845;DHT22;15976;47.938;7.758;2023-04-06T16:30:38;15.10;32.10
28845;DHT22;15976;47.938;7.758;2023-04-06T16:33:32;15.10;32.50